Page Municipal Airport
KPGA : rendu visible

Aérodrome :











RETROUVEZ-NOUS SUR...

 
LOGIN :

S'inscrire | Disclaimer

   EN    FR    IT 

 









Légende :    VFR   VFR Marginal   IFR   IFR Intensif   IFR Très Intensif
Visi : 
Plafond : 
>= 8 km
>= 3000ft
5 à 8 km
1000 à 3000 ft
1500m à 5 km
500 à 1000 ft
800 à 1500m
200 à 500 ft
< 800m
< 200 ft
Symboles :   Orages  Brouillard  Fortes neiges  Fortes précipitations  Vent > 20 kt






- Altitude de l'aérodrome : 4316 ft


KPGA - Page Municipal

DERNIER METAR :
  • 210153Z AUTO 00000KT 10SM CLR 04/M06 A3026 RMK AO2 SLP251 T00441056 TSNO

METARs EXPIRÉS :
  • 210053Z AUTO 24003KT 10SM CLR 05/M06 A3027 RMK AO2 SLP254 T00501061 TSNO
  • 202353Z AUTO 03004KT 10SM CLR 06/M06 A3026 RMK AO2 SLP248 T00561061 10061 20039 58015 TSNO

TAF KPGA
Valide du 21 à 00h jusqu'au 22 à 00h UTC


202326Z 2100/2124 VRB05KT P6SM SCT050 BKN100
FM210600 VRB05KT P6SM VCSH BKN035 OVC050
FM211000 VRB05KT 4SM -SHRASN BKN025 OVC035
FM211800 VRB05KT P6SM BKN035



MET'MAP, la Météo Aéronautique d'un coup d'oeil ! - Copyright ORBIFLY Décembre 2007 - Disclaimer

ORBIFLY MET'MAP TEAM :

Programmation & Développement : Alexandra Zaïnal
Sur une idée originale de : Baudouin d'Aumeries
Assistance à la programmation : Marc-Olivier Méhu
Soutien technique & logistique : Manuel Goepfert

Contact : metmap@orbifly.com




SOURCES & CREDITS :

   NOAA       Earth
Advisory